Time;durP1;ratioP1;P1;durP2;ratioP2;P2;SDS_P1;SDS_P2;PMS_P1;PMS_P2;Temp;Humidity;BMP_temperature;BMP_pressure;BME280_temperature;BME280_humidity;BME280_pressure;Samples;Min_cycle;Max_cycle;Signal;HPM_P1;HPM_P2
2024/01/22 00:01:25;;;;;;;1.75;1.00;;;7.20;99.90;;;;;;5024460;28;20041;-71
2024/01/22 00:03:51;;;;;;;0.63;0.63;;;7.20;99.90;;;;;;5024071;28;20050;-72
2024/01/22 00:06:16;;;;;;;0.13;0.13;;;7.30;99.90;;;;;;5027841;28;20073;-72
2024/01/22 00:08:42;;;;;;;0.10;0.10;;;7.20;99.90;;;;;;5025302;28;20092;-72
2024/01/22 00:11:07;;;;;;;0.20;0.20;;;7.20;99.90;;;;;;5021050;28;20037;-72
2024/01/22 00:13:33;;;;;;;0.17;0.17;;;7.30;99.90;;;;;;5020157;28;20492;-71
2024/01/22 00:15:58;;;;;;;0.15;0.15;;;7.30;99.90;;;;;;5029791;28;20128;-71
2024/01/22 00:18:24;;;;;;;0.20;0.20;;;7.40;99.90;;;;;;5030633;28;20499;-71
2024/01/22 00:20:50;;;;;;;0.15;0.15;;;7.40;99.90;;;;;;5020379;28;20781;-72
2024/01/22 00:23:15;;;;;;;0.10;0.10;;;7.40;99.90;;;;;;5027770;28;20038;-72
2024/01/22 00:25:41;;;;;;;0.20;0.20;;;7.30;99.90;;;;;;5015977;28;20049;-72
2024/01/22 00:28:06;;;;;;;0.10;0.10;;;7.40;99.90;;;;;;5022252;28;20663;-72
2024/01/22 00:30:32;;;;;;;0.10;0.10;;;7.40;99.90;;;;;;5042189;28;20074;-71
2024/01/22 00:32:58;;;;;;;0.10;0.10;;;7.40;99.90;;;;;;5021232;28;20405;-72
2024/01/22 00:35:24;;;;;;;0.10;0.10;;;7.40;99.90;;;;;;5025389;28;20052;-71
2024/01/22 00:37:50;;;;;;;0.20;0.20;;;7.40;99.90;;;;;;5028860;28;20034;-72
2024/01/22 00:40:15;;;;;;;0.10;0.10;;;7.40;99.90;;;;;;5024070;28;20053;-72
2024/01/22 00:42:43;;;;;;;1.63;1.30;;;7.40;99.90;;;;;;5019722;28;20137;-72
2024/01/22 00:45:08;;;;;;;0.77;0.77;;;7.40;99.90;;;;;;5019366;28;20041;-72
2024/01/22 00:47:34;;;;;;;0.20;0.20;;;7.40;99.90;;;;;;5022559;28;20045;-72
2024/01/22 00:50:00;;;;;;;0.10;0.10;;;7.30;99.90;;;;;;5018044;28;20077;-71
2024/01/22 00:52:25;;;;;;;0.22;0.22;;;7.30;99.90;;;;;;5028928;28;20042;-72
2024/01/22 00:54:51;;;;;;;2.67;2.47;;;7.30;99.90;;;;;;5028657;28;20056;-73
2024/01/22 00:57:16;;;;;;;0.20;0.20;;;7.30;99.90;;;;;;5018520;28;20069;-73
2024/01/22 00:59:42;;;;;;;1.85;1.70;;;7.40;99.90;;;;;;5022151;28;20049;-73
2024/01/22 01:02:07;;;;;;;0.10;0.10;;;7.40;99.90;;;;;;5017745;28;20053;-73
2024/01/22 01:04:33;;;;;;;0.17;0.17;;;7.40;99.90;;;;;;5019096;28;20568;-73
2024/01/22 01:06:58;;;;;;;0.68;0.68;;;7.40;99.90;;;;;;5023764;28;20378;-74
2024/01/22 01:09:24;;;;;;;0.20;0.20;;;7.40;99.90;;;;;;5022487;28;20115;-74
2024/01/22 01:11:49;;;;;;;3.15;2.13;;;7.40;99.90;;;;;;5022332;28;20068;-73
2024/01/22 01:14:15;;;;;;;0.38;0.38;;;7.40;99.90;;;;;;5028373;28;20042;-73
2024/01/22 01:16:40;;;;;;;0.10;0.10;;;7.40;99.90;;;;;;5023641;28;20049;-74
2024/01/22 01:19:06;;;;;;;0.10;0.10;;;7.40;99.90;;;;;;5018711;28;20684;-74
2024/01/22 01:21:32;;;;;;;0.40;0.40;;;7.50;99.90;;;;;;5026629;28;20046;-74
2024/01/22 01:23:57;;;;;;;0.95;0.95;;;7.50;99.90;;;;;;5022592;28;20117;-74
2024/01/22 01:26:23;;;;;;;0.10;0.10;;;7.50;99.90;;;;;;5016041;28;20044;-74
2024/01/22 01:28:48;;;;;;;0.52;0.52;;;7.50;99.90;;;;;;5021786;28;20568;-73
2024/01/22 01:31:14;;;;;;;0.10;0.10;;;7.50;99.90;;;;;;5028226;28;20100;-73
2024/01/22 01:33:39;;;;;;;0.10;0.10;;;7.50;99.90;;;;;;5027396;28;20053;-74
2024/01/22 01:36:05;;;;;;;1.63;1.27;;;7.60;99.90;;;;;;5020303;28;20496;-74
2024/01/22 01:38:30;;;;;;;0.20;0.20;;;7.60;99.90;;;;;;5028433;28;20412;-74
2024/01/22 01:40:56;;;;;;;0.03;0.03;;;7.70;99.90;;;;;;5027009;28;20093;-74
2024/01/22 01:43:22;;;;;;;0.17;0.17;;;7.70;99.90;;;;;;5025410;28;20077;-74
2024/01/22 01:45:47;;;;;;;0.75;0.75;;;7.70;99.90;;;;;;5018492;28;20072;-74
2024/01/22 01:48:13;;;;;;;0.30;0.30;;;7.80;99.90;;;;;;5011592;28;20133;-74
2024/01/22 01:50:39;;;;;;;0.45;0.45;;;7.80;99.90;;;;;;5012847;28;20038;-74
2024/01/22 01:53:06;;;;;;;0.10;0.10;;;7.90;99.90;;;;;;5027751;28;20508;-74
2024/01/22 01:55:33;;;;;;;0.00;0.00;;;7.90;99.90;;;;;;5020184;28;20057;-75
2024/01/22 01:58:01;;;;;;;0.10;0.10;;;7.90;99.90;;;;;;5028977;28;20116;-74
2024/01/22 02:00:27;;;;;;;0.10;0.10;;;8.00;99.90;;;;;;5028282;28;20056;-74
2024/01/22 02:02:52;;;;;;;0.10;0.10;;;8.10;99.90;;;;;;5017507;28;20124;-74
2024/01/22 02:05:18;;;;;;;0.20;0.20;;;8.10;99.90;;;;;;5022670;28;20145;-75
2024/01/22 02:07:43;;;;;;;0.35;0.35;;;8.10;99.90;;;;;;5022745;28;20117;-75
2024/01/22 02:10:12;;;;;;;0.10;0.10;;;8.20;99.90;;;;;;5024794;28;20048;-74
2024/01/22 02:12:39;;;;;;;0.10;0.10;;;8.10;99.90;;;;;;5026063;28;20041;-75
2024/01/22 02:15:06;;;;;;;0.43;0.40;;;8.20;99.90;;;;;;5020558;28;20037;-74
2024/01/22 02:17:31;;;;;;;0.20;0.20;;;8.20;99.90;;;;;;5023388;28;20118;-74
2024/01/22 02:19:57;;;;;;;0.22;0.22;;;8.20;99.90;;;;;;5021896;28;20068;-74
2024/01/22 02:22:22;;;;;;;0.25;0.25;;;8.20;99.90;;;;;;5025893;28;20049;-74
2024/01/22 02:24:48;;;;;;;1.13;0.57;;;8.20;99.90;;;;;;5019374;28;20046;-74
2024/01/22 02:27:14;;;;;;;0.15;0.15;;;8.20;99.90;;;;;;5022459;28;20745;-74
2024/01/22 02:29:40;;;;;;;0.00;0.00;;;8.20;99.90;;;;;;5027136;28;20561;-74
2024/01/22 02:32:05;;;;;;;1.55;1.00;;;8.20;99.90;;;;;;5019271;28;20080;-74
2024/01/22 02:34:31;;;;;;;0.32;0.25;;;8.20;99.90;;;;;;5023623;28;20041;-74
2024/01/22 02:36:57;;;;;;;0.40;0.40;;;8.30;99.90;;;;;;5026727;28;20096;-73
2024/01/22 02:39:22;;;;;;;0.10;0.10;;;8.20;99.90;;;;;;5022973;28;20089;-73
2024/01/22 02:41:48;;;;;;;0.00;0.00;;;8.30;99.90;;;;;;5016282;28;20526;-73
2024/01/22 02:44:13;;;;;;;0.43;0.43;;;8.40;99.90;;;;;;5025525;28;20069;-73
2024/01/22 02:46:39;;;;;;;0.25;0.25;;;8.40;99.90;;;;;;5028419;28;20034;-73
2024/01/22 02:49:06;;;;;;;0.10;0.10;;;8.40;99.90;;;;;;5039214;28;20054;-74
2024/01/22 02:51:32;;;;;;;0.10;0.10;;;8.40;99.90;;;;;;5024991;28;20033;-73
2024/01/22 02:53:58;;;;;;;0.10;0.10;;;8.40;99.90;;;;;;5047368;28;20049;-74
2024/01/22 02:56:24;;;;;;;0.10;0.10;;;8.40;99.90;;;;;;5019264;28;20053;-74
2024/01/22 02:58:50;;;;;;;0.20;0.20;;;8.40;99.90;;;;;;5023547;28;20041;-75
2024/01/22 03:01:15;;;;;;;0.10;0.10;;;8.40;99.90;;;;;;5029114;28;20029;-74
2024/01/22 03:03:41;;;;;;;0.10;0.10;;;8.30;99.90;;;;;;5027663;28;20053;-75
2024/01/22 03:06:07;;;;;;;0.10;0.10;;;8.40;99.90;;;;;;5028612;28;20056;-74
2024/01/22 03:08:33;;;;;;;0.10;0.10;;;8.40;99.90;;;;;;5031084;28;20397;-74
2024/01/22 03:10:59;;;;;;;0.22;0.22;;;8.40;99.90;;;;;;5027315;28;20041;-74
2024/01/22 03:13:25;;;;;;;0.20;0.20;;;8.40;99.90;;;;;;5040851;28;20040;-74
2024/01/22 03:15:50;;;;;;;0.10;0.10;;;8.40;99.90;;;;;;5031118;28;20092;-74
2024/01/22 03:18:16;;;;;;;0.10;0.10;;;8.50;99.90;;;;;;5042610;28;20049;-75
2024/01/22 03:20:41;;;;;;;0.10;0.10;;;8.40;99.90;;;;;;5026664;28;20057;-74
2024/01/22 03:23:07;;;;;;;0.10;0.10;;;8.50;99.90;;;;;;5030727;28;20037;-74
2024/01/22 03:25:32;;;;;;;0.10;0.10;;;8.60;99.90;;;;;;5028153;28;20053;-74
2024/01/22 03:27:58;;;;;;;0.03;0.03;;;8.70;99.90;;;;;;5017159;28;20520;-75
2024/01/22 03:30:23;;;;;;;0.40;0.40;;;8.70;99.90;;;;;;5026045;28;20039;-75
2024/01/22 03:32:49;;;;;;;0.15;0.15;;;8.80;99.90;;;;;;5016769;28;20053;-74
2024/01/22 03:35:15;;;;;;;0.10;0.10;;;8.80;99.90;;;;;;5024821;28;20041;-73
2024/01/22 03:37:40;;;;;;;0.50;0.50;;;8.90;99.90;;;;;;5028605;28;20088;-73
2024/01/22 03:40:07;;;;;;;0.28;0.28;;;8.90;99.90;;;;;;5020181;28;20049;-74
2024/01/22 03:42:33;;;;;;;0.68;0.68;;;8.90;99.90;;;;;;5019960;28;20404;-74
2024/01/22 03:44:59;;;;;;;0.00;0.00;;;8.90;99.90;;;;;;5024342;28;20045;-74
2024/01/22 03:47:24;;;;;;;0.10;0.10;;;8.90;99.90;;;;;;5027160;28;20547;-74
2024/01/22 03:49:50;;;;;;;0.50;0.50;;;9.10;99.90;;;;;;5018283;28;20046;-74
2024/01/22 03:52:16;;;;;;;0.28;0.28;;;9.20;99.90;;;;;;5025133;28;20102;-74
2024/01/22 03:54:41;;;;;;;0.10;0.10;;;9.20;99.90;;;;;;5026766;28;20536;-74
2024/01/22 03:57:07;;;;;;;0.10;0.10;;;9.30;99.90;;;;;;5022284;28;20046;-74
2024/01/22 03:59:37;;;;;;;0.10;0.10;;;9.30;99.90;;;;;;5024744;28;20393;-74
2024/01/22 04:02:03;;;;;;;0.40;0.40;;;9.30;99.90;;;;;;5025307;28;20124;-74
2024/01/22 04:04:29;;;;;;;0.10;0.10;;;9.30;99.90;;;;;;5029050;28;20053;-74
2024/01/22 04:06:54;;;;;;;0.10;0.10;;;9.30;99.90;;;;;;5029527;28;20068;-74
2024/01/22 04:09:20;;;;;;;2.55;0.98;;;9.30;99.90;;;;;;5022376;28;20033;-74
2024/01/22 04:11:45;;;;;;;0.03;0.03;;;9.30;99.90;;;;;;5025364;28;20045;-73
2024/01/22 04:14:11;;;;;;;0.40;0.40;;;9.30;99.90;;;;;;5029447;28;20048;-74
2024/01/22 04:16:37;;;;;;;0.10;0.10;;;9.30;99.90;;;;;;5026830;28;20134;-74
2024/01/22 04:19:02;;;;;;;0.10;0.10;;;9.30;99.90;;;;;;5017708;28;20628;-73
2024/01/22 04:21:30;;;;;;;0.10;0.10;;;9.30;99.90;;;;;;5028264;28;20053;-73
2024/01/22 04:23:56;;;;;;;0.28;0.28;;;9.30;99.90;;;;;;5028923;28;20517;-73
2024/01/22 04:26:21;;;;;;;0.10;0.10;;;9.30;99.90;;;;;;5015201;28;20060;-73
2024/01/22 04:28:47;;;;;;;0.10;0.10;;;9.30;99.90;;;;;;5026249;28;20583;-73
2024/01/22 04:31:12;;;;;;;0.10;0.10;;;9.30;99.90;;;;;;5029020;28;20037;-74
2024/01/22 04:33:39;;;;;;;0.15;0.15;;;9.40;99.90;;;;;;5020522;28;20041;-74
2024/01/22 04:36:04;;;;;;;0.10;0.10;;;9.40;99.90;;;;;;5023500;28;20176;-73
2024/01/22 04:38:30;;;;;;;1.45;1.35;;;9.40;99.90;;;;;;4983537;28;1042691;-73
2024/01/22 04:40:56;;;;;;;0.03;0.03;;;9.40;99.90;;;;;;5022511;28;20084;-74
2024/01/22 04:43:23;;;;;;;0.73;0.73;;;9.50;99.90;;;;;;5024132;28;20053;-74
2024/01/22 04:45:48;;;;;;;0.10;0.10;;;9.50;99.90;;;;;;5029439;28;20056;-73
2024/01/22 04:48:14;;;;;;;0.10;0.10;;;9.50;99.90;;;;;;5030640;28;20081;-73
2024/01/22 04:50:40;;;;;;;0.10;0.10;;;9.50;99.90;;;;;;5026245;28;20050;-74
2024/01/22 04:53:05;;;;;;;0.00;0.00;;;9.50;99.90;;;;;;5030753;28;20034;-75
2024/01/22 04:55:31;;;;;;;0.10;0.10;;;9.60;99.90;;;;;;5018933;28;20060;-75
2024/01/22 04:57:57;;;;;;;0.15;0.15;;;9.60;99.90;;;;;;5022311;28;20139;-76
2024/01/22 05:00:22;;;;;;;0.13;0.13;;;9.60;99.90;;;;;;5028917;28;20163;-74
2024/01/22 05:02:48;;;;;;;0.10;0.10;;;9.60;99.90;;;;;;5027328;28;20057;-74
2024/01/22 05:05:14;;;;;;;0.10;0.10;;;9.60;99.90;;;;;;5023841;28;20180;-74
2024/01/22 05:07:39;;;;;;;0.00;0.00;;;9.60;99.90;;;;;;5022039;28;20041;-75
2024/01/22 05:10:09;;;;;;;0.00;0.00;;;9.60;99.90;;;;;;5028488;28;20770;-75
2024/01/22 05:12:38;;;;;;;0.20;0.20;;;9.60;99.90;;;;;;5018862;28;20049;-74
2024/01/22 05:15:04;;;;;;;0.10;0.10;;;9.50;99.90;;;;;;5023355;28;20034;-74
2024/01/22 05:17:29;;;;;;;0.10;0.10;;;9.60;99.90;;;;;;5027754;28;20048;-74
2024/01/22 05:19:55;;;;;;;0.40;0.40;;;9.60;99.90;;;;;;5022788;28;20049;-74
2024/01/22 05:22:21;;;;;;;0.10;0.10;;;9.60;99.90;;;;;;5027992;28;20049;-74
2024/01/22 05:24:47;;;;;;;0.10;0.10;;;9.60;99.90;;;;;;5022545;28;20121;-74
2024/01/22 05:27:14;;;;;;;0.10;0.10;;;9.60;99.90;;;;;;5016301;28;20132;-74
2024/01/22 05:29:40;;;;;;;0.10;0.10;;;9.60;99.90;;;;;;5024268;28;20034;-74
2024/01/22 05:32:06;;;;;;;0.17;0.17;;;9.70;99.90;;;;;;5027253;28;20136;-73
2024/01/22 05:34:31;;;;;;;0.00;0.00;;;9.80;99.90;;;;;;5023509;28;20104;-74
2024/01/22 05:36:57;;;;;;;0.10;0.10;;;9.90;99.90;;;;;;5024615;28;20408;-74
2024/01/22 05:39:22;;;;;;;0.10;0.10;;;10.00;99.90;;;;;;5033039;28;20091;-74
2024/01/22 05:41:48;;;;;;;0.10;0.10;;;10.10;99.90;;;;;;5024194;28;20492;-74
2024/01/22 05:44:14;;;;;;;0.10;0.10;;;10.20;99.90;;;;;;5023884;28;20540;-74
2024/01/22 05:46:39;;;;;;;0.15;0.15;;;10.30;99.90;;;;;;5025991;28;20083;-74
2024/01/22 05:49:05;;;;;;;0.28;0.28;;;10.40;99.90;;;;;;5026717;28;20089;-74
2024/01/22 05:51:31;;;;;;;0.10;0.10;;;10.50;99.90;;;;;;5020588;28;20394;-74
2024/01/22 05:53:59;;;;;;;0.10;0.10;;;10.50;99.90;;;;;;5026433;28;20037;-73
2024/01/22 05:56:26;;;;;;;0.05;0.05;;;10.50;99.90;;;;;;5026362;28;20516;-73
2024/01/22 05:58:53;;;;;;;0.00;0.00;;;10.50;99.90;;;;;;5011830;28;20053;-74
2024/01/22 06:01:23;;;;;;;0.10;0.10;;;10.50;99.90;;;;;;5018685;28;20432;-73
2024/01/22 06:03:48;;;;;;;0.20;0.20;;;10.40;99.90;;;;;;5018709;28;20505;-73
2024/01/22 06:06:15;;;;;;;1.13;1.08;;;10.40;99.90;;;;;;5027394;28;20045;-73
2024/01/22 06:08:45;;;;;;;0.10;0.10;;;10.40;99.90;;;;;;5026918;28;20045;-74
2024/01/22 06:11:11;;;;;;;0.10;0.10;;;10.40;99.90;;;;;;5026819;28;20041;-74
2024/01/22 06:13:41;;;;;;;0.08;0.08;;;10.40;99.90;;;;;;5020822;28;20119;-74
2024/01/22 06:16:14;;;;;;;1.10;1.10;;;10.30;99.90;;;;;;5026539;28;20057;-73
2024/01/22 06:18:41;;;;;;;0.05;0.05;;;10.20;99.90;;;;;;5018003;28;20054;-74
2024/01/22 06:21:08;;;;;;;0.10;0.10;;;10.20;99.90;;;;;;5016237;28;20044;-74
2024/01/22 06:23:34;;;;;;;0.32;0.32;;;10.20;99.90;;;;;;5024094;28;20394;-74
2024/01/22 06:26:00;;;;;;;0.10;0.10;;;10.20;99.90;;;;;;5037328;28;20057;-73
2024/01/22 06:28:29;;;;;;;0.52;0.52;;;10.20;99.90;;;;;;5026193;28;20099;-74
2024/01/22 06:30:54;;;;;;;1.67;1.58;;;10.20;99.90;;;;;;5014136;28;20057;-74
2024/01/22 06:33:21;;;;;;;2.60;1.90;;;10.20;99.90;;;;;;5017978;28;20046;-73
2024/01/22 06:35:47;;;;;;;1.73;1.63;;;10.30;99.90;;;;;;5026501;28;20041;-73
2024/01/22 06:38:17;;;;;;;7.13;3.05;;;10.30;99.90;;;;;;5032467;28;20124;-73
2024/01/22 06:40:44;;;;;;;1.10;1.10;;;10.30;99.90;;;;;;5022474;28;20072;-73
2024/01/22 06:43:10;;;;;;;0.25;0.25;;;10.30;99.90;;;;;;5028258;28;20072;-73
2024/01/22 06:45:35;;;;;;;0.00;0.00;;;10.30;99.90;;;;;;5014430;28;20139;-73
2024/01/22 06:48:01;;;;;;;8.88;2.75;;;10.30;99.90;;;;;;5019108;28;20113;-73
2024/01/22 06:50:27;;;;;;;4.95;2.20;;;10.30;99.90;;;;;;5026364;28;20048;-73
2024/01/22 06:52:52;;;;;;;0.52;0.52;;;10.30;99.90;;;;;;5028939;28;20401;-72
2024/01/22 06:55:18;;;;;;;0.10;0.10;;;10.30;99.90;;;;;;5027383;28;20421;-72
2024/01/22 06:57:44;;;;;;;2.17;1.52;;;10.30;99.90;;;;;;5011341;28;20049;-73
2024/01/22 07:00:11;;;;;;;0.90;0.65;;;10.30;99.90;;;;;;5021954;28;20092;-73
2024/01/22 07:02:38;;;;;;;0.20;0.20;;;10.30;99.90;;;;;;5019539;28;20533;-74
2024/01/22 07:05:05;;;;;;;8.32;4.03;;;10.30;99.90;;;;;;5021563;28;20038;-73
2024/01/22 07:07:30;;;;;;;1.77;1.25;;;10.30;99.90;;;;;;5030465;28;20497;-73
2024/01/22 07:09:59;;;;;;;0.10;0.10;;;10.30;99.90;;;;;;5024255;28;20065;-75
2024/01/22 07:12:25;;;;;;;0.00;0.00;;;10.20;99.90;;;;;;5023956;28;20053;-76
2024/01/22 07:14:51;;;;;;;4.75;2.70;;;10.10;99.90;;;;;;5025846;28;20124;-77
2024/01/22 07:17:20;;;;;;;2.65;1.40;;;10.00;99.90;;;;;;5012765;28;20041;-77
2024/01/22 07:19:46;;;;;;;2.53;1.02;;;10.00;99.90;;;;;;5022571;28;20057;-76
2024/01/22 07:22:12;;;;;;;5.15;2.08;;;10.10;99.90;;;;;;5026817;28;20041;-76
2024/01/22 07:24:38;;;;;;;0.10;0.10;;;10.10;99.90;;;;;;5015362;28;20095;-75
2024/01/22 07:27:04;;;;;;;0.95;0.95;;;10.00;99.90;;;;;;5025437;28;20082;-75
2024/01/22 07:29:32;;;;;;;1.17;1.10;;;10.00;99.90;;;;;;5021464;28;20425;-76
2024/01/22 07:31:58;;;;;;;0.30;0.30;;;9.90;99.90;;;;;;5020260;28;20037;-75
2024/01/22 07:34:25;;;;;;;0.10;0.10;;;9.90;99.90;;;;;;5025071;28;20046;-76
2024/01/22 07:36:51;;;;;;;0.73;0.73;;;9.90;99.90;;;;;;5029536;28;20057;-70
2024/01/22 07:39:17;;;;;;;5.47;1.95;;;9.80;99.90;;;;;;5027388;28;20493;-70
2024/01/22 07:41:42;;;;;;;0.75;0.75;;;9.80;99.90;;;;;;5026434;28;20060;-72
2024/01/22 07:44:08;;;;;;;0.00;0.00;;;9.80;99.90;;;;;;5024822;28;20485;-74
2024/01/22 07:46:34;;;;;;;0.63;0.63;;;9.80;99.90;;;;;;5018638;28;20510;-74
2024/01/22 07:49:00;;;;;;;6.18;3.70;;;9.80;99.90;;;;;;5029919;28;20049;-74
2024/01/22 07:51:26;;;;;;;0.08;0.08;;;9.80;99.90;;;;;;5024496;28;20509;-74
2024/01/22 07:53:51;;;;;;;4.18;2.08;;;9.80;99.90;;;;;;5018835;28;20038;-74
2024/01/22 07:56:17;;;;;;;8.35;1.55;;;9.70;99.90;;;;;;5020327;28;20095;-74
2024/01/22 07:58:43;;;;;;;0.32;0.32;;;9.70;99.90;;;;;;5026831;28;20049;-74
2024/01/22 08:01:09;;;;;;;0.40;0.40;;;9.70;99.90;;;;;;5021924;28;20053;-74
2024/01/22 08:03:34;;;;;;;3.08;1.85;;;9.70;99.90;;;;;;5016237;28;20129;-74
2024/01/22 08:06:00;;;;;;;0.10;0.10;;;9.60;99.90;;;;;;5019275;28;20052;-74
2024/01/22 08:08:27;;;;;;;0.10;0.10;;;9.50;99.90;;;;;;5024027;28;20040;-74
2024/01/22 08:10:53;;;;;;;1.00;1.00;;;9.50;99.90;;;;;;5031335;28;20041;-74
2024/01/22 08:13:19;;;;;;;0.00;0.00;;;9.40;99.90;;;;;;5022187;28;20050;-74
2024/01/22 08:15:45;;;;;;;0.10;0.10;;;9.40;99.90;;;;;;5023465;28;20095;-74
2024/01/22 08:18:11;;;;;;;0.30;0.30;;;9.40;99.90;;;;;;5020467;28;20410;-73
2024/01/22 08:20:37;;;;;;;0.45;0.45;;;9.40;99.90;;;;;;5014375;28;20038;-73
2024/01/22 08:23:02;;;;;;;0.10;0.10;;;9.30;99.90;;;;;;5022112;28;20096;-72
2024/01/22 08:25:28;;;;;;;0.47;0.47;;;9.30;99.90;;;;;;5027891;28;20042;-72
2024/01/22 08:27:58;;;;;;;1.48;0.88;;;9.30;99.90;;;;;;5020858;28;20050;-72
2024/01/22 08:30:25;;;;;;;3.50;0.30;;;9.20;99.90;;;;;;5026332;28;20041;-72
2024/01/22 08:32:51;;;;;;;1.85;1.48;;;9.20;99.90;;;;;;5029843;28;20144;-71
2024/01/22 08:35:18;;;;;;;0.50;0.50;;;9.20;99.90;;;;;;5026925;28;20493;-72
2024/01/22 08:37:50;;;;;;;6.22;5.28;;;9.20;99.90;;;;;;5032322;28;20397;-72
2024/01/22 08:40:23;;;;;;;0.32;0.32;;;9.20;99.90;;;;;;5029070;28;20100;-72
2024/01/22 08:42:55;;;;;;;0.43;0.43;;;9.20;99.90;;;;;;5043588;28;20054;-72
2024/01/22 08:45:21;;;;;;;9.80;4.65;;;9.20;99.90;;;;;;5019448;28;20050;-72
2024/01/22 08:47:50;;;;;;;1.95;1.08;;;9.20;99.90;;;;;;5021770;28;20099;-72
2024/01/22 08:50:23;;;;;;;1.88;1.77;;;9.20;99.90;;;;;;5023630;28;20056;-72
2024/01/22 08:52:52;;;;;;;1.75;1.50;;;9.20;99.90;;;;;;5028140;28;20080;-72
2024/01/22 08:55:18;;;;;;;3.38;1.90;;;9.20;99.90;;;;;;5027487;28;20060;-72
2024/01/22 08:57:45;;;;;;;2.03;1.65;;;9.20;99.90;;;;;;5018308;28;20069;-72
2024/01/22 09:00:11;;;;;;;1.30;1.20;;;9.20;99.90;;;;;;5022899;28;20560;-72
2024/01/22 09:02:43;;;;;;;1.38;1.27;;;9.20;99.90;;;;;;5025851;28;20048;-72
2024/01/22 09:05:10;;;;;;;0.20;0.20;;;9.30;99.90;;;;;;5025998;28;20100;-71
2024/01/22 09:07:36;;;;;;;0.73;0.73;;;9.30;99.90;;;;;;5016245;28;21645;-72
2024/01/22 09:10:07;;;;;;;0.17;0.17;;;9.30;99.90;;;;;;5021353;28;20104;-71
2024/01/22 09:12:36;;;;;;;16.30;4.60;;;9.30;99.90;;;;;;5025815;28;20033;-72
2024/01/22 09:15:04;;;;;;;1.73;1.63;;;9.30;99.90;;;;;;5022689;28;20591;-72
2024/01/22 09:17:30;;;;;;;0.20;0.20;;;9.30;99.90;;;;;;5021504;28;20117;-72
2024/01/22 09:19:56;;;;;;;0.82;0.68;;;9.30;99.90;;;;;;5027890;28;20053;-72
2024/01/22 09:22:23;;;;;;;3.92;1.13;;;9.30;99.90;;;;;;5021578;28;20439;-72
2024/01/22 09:24:49;;;;;;;1.50;1.42;;;9.30;99.90;;;;;;5041959;28;20080;-71
2024/01/22 09:27:14;;;;;;;0.60;0.60;;;9.30;99.90;;;;;;5029557;28;20069;-71
2024/01/22 09:29:41;;;;;;;1.67;1.38;;;9.40;99.90;;;;;;5026721;28;20049;-72
2024/01/22 09:32:10;;;;;;;0.73;0.65;;;9.40;99.90;;;;;;5015220;28;20042;-72
2024/01/22 09:34:37;;;;;;;0.20;0.20;;;9.40;99.90;;;;;;5021868;28;20052;-71
2024/01/22 09:37:03;;;;;;;0.88;0.88;;;9.40;99.90;;;;;;5013393;28;20543;-71
2024/01/22 09:39:30;;;;;;;0.10;0.10;;;9.40;99.90;;;;;;5039438;28;20493;-71
2024/01/22 09:41:57;;;;;;;1.00;1.00;;;9.40;99.90;;;;;;5022622;28;20107;-71
2024/01/22 09:44:23;;;;;;;1.70;1.63;;;9.40;99.90;;;;;;5032990;28;20059;-72
2024/01/22 09:46:49;;;;;;;0.30;0.30;;;9.40;99.90;;;;;;5016808;28;20045;-71
2024/01/22 09:49:15;;;;;;;0.17;0.17;;;9.40;99.90;;;;;;5024387;28;20432;-71
2024/01/22 09:51:44;;;;;;;0.10;0.10;;;9.40;99.90;;;;;;5026527;28;20137;-71
2024/01/22 09:54:11;;;;;;;3.90;3.20;;;9.40;99.90;;;;;;5023216;28;20041;-71
2024/01/22 09:56:37;;;;;;;0.80;0.80;;;9.40;99.90;;;;;;5028875;28;20037;-71
2024/01/22 09:59:16;;;;;;;3.80;2.55;;;9.40;99.90;;;;;;5017539;28;20079;-71
2024/01/22 10:01:42;;;;;;;0.10;0.10;;;9.40;99.90;;;;;;5020105;28;20042;-71
2024/01/22 10:04:10;;;;;;;1.23;1.23;;;9.40;99.90;;;;;;5019226;28;20049;-71
2024/01/22 10:06:36;;;;;;;0.57;0.57;;;9.30;99.90;;;;;;5023128;28;20038;-71
2024/01/22 10:09:02;;;;;;;7.47;3.40;;;9.30;99.90;;;;;;5022687;28;20083;-71
2024/01/22 10:11:30;;;;;;;0.22;0.22;;;9.40;99.90;;;;;;5020306;28;20047;-71
2024/01/22 10:13:56;;;;;;;9.32;3.30;;;9.30;99.90;;;;;;5028740;28;20098;-71
2024/01/22 10:16:26;;;;;;;0.38;0.38;;;9.30;99.90;;;;;;5025784;28;20049;-71
2024/01/22 10:19:00;;;;;;;0.10;0.10;;;9.30;99.90;;;;;;5019501;28;20051;-71
2024/01/22 10:21:26;;;;;;;0.10;0.10;;;9.30;99.90;;;;;;5022290;28;20508;-71
2024/01/22 10:24:11;;;;;;;0.20;0.20;;;9.30;99.90;;;;;;5022377;28;20037;-71
2024/01/22 10:26:37;;;;;;;0.35;0.35;;;9.40;99.90;;;;;;5027113;28;20129;-71
2024/01/22 10:29:13;;;;;;;0.10;0.10;;;9.50;99.90;;;;;;5027069;28;20053;-71
2024/01/22 10:32:00;;;;;;;0.10;0.10;;;9.60;99.90;;;;;;5020298;28;20056;-71
2024/01/22 10:34:28;;;;;;;2.55;2.05;;;9.70;99.90;;;;;;5017737;28;20132;-71
2024/01/22 10:37:10;;;;;;;0.98;0.98;;;9.90;99.90;;;;;;5028303;28;20099;-71
2024/01/22 10:39:38;;;;;;;0.40;0.40;;;10.00;99.90;;;;;;5018379;28;20041;-71
2024/01/22 10:42:12;;;;;;;0.10;0.10;;;10.10;99.90;;;;;;5031008;28;20083;-72
2024/01/22 10:44:39;;;;;;;22.95;3.22;;;10.10;99.90;;;;;;5028076;28;20038;-71
2024/01/22 10:47:05;;;;;;;0.63;0.63;;;10.10;99.90;;;;;;5024457;28;20084;-71
2024/01/22 10:49:33;;;;;;;0.10;0.10;;;10.20;99.90;;;;;;5013448;28;20129;-71
2024/01/22 10:52:00;;;;;;;3.85;1.40;;;10.20;99.90;;;;;;5023149;28;20064;-70
2024/01/22 10:54:34;;;;;;;0.57;0.57;;;10.20;99.90;;;;;;5023721;28;20085;-69
2024/01/22 10:57:04;;;;;;;0.80;0.57;;;10.20;99.90;;;;;;5026455;28;20080;-70
2024/01/22 10:59:36;;;;;;;2.90;1.75;;;10.20;99.90;;;;;;5020141;28;20072;-71
2024/01/22 11:02:04;;;;;;;0.10;0.10;;;10.20;99.90;;;;;;5021916;28;20064;-71
2024/01/22 11:04:42;;;;;;;0.00;0.00;;;10.20;99.90;;;;;;5028026;28;20438;-71
2024/01/22 11:07:10;;;;;;;3.47;3.17;;;10.20;99.90;;;;;;5030873;28;20146;-69
2024/01/22 11:09:37;;;;;;;3.35;2.58;;;10.30;99.90;;;;;;5022173;28;20041;-70
2024/01/22 11:12:13;;;;;;;0.10;0.10;;;10.30;99.90;;;;;;5032268;28;20071;-71
2024/01/22 11:14:41;;;;;;;1.52;1.40;;;10.30;99.90;;;;;;5020448;28;20052;-70
2024/01/22 11:17:09;;;;;;;0.20;0.20;;;10.20;99.90;;;;;;5030194;28;20047;-70
2024/01/22 11:19:35;;;;;;;1.60;1.50;;;10.30;99.90;;;;;;5027007;28;20092;-70
2024/01/22 11:22:12;;;;;;;4.47;1.75;;;10.30;99.90;;;;;;5027009;28;20489;-70
2024/01/22 11:24:38;;;;;;;5.05;1.92;;;10.20;99.90;;;;;;5026901;28;20060;-70
2024/01/22 11:27:05;;;;;;;0.45;0.40;;;10.20;99.90;;;;;;5021957;28;20042;-70
2024/01/22 11:29:32;;;;;;;1.15;1.10;;;10.30;99.90;;;;;;5027999;28;20045;-70
2024/01/22 11:32:28;;;;;;;2.00;1.25;;;10.30;99.90;;;;;;5031296;28;20057;-70
2024/01/22 11:34:57;;;;;;;0.00;0.00;;;10.30;99.90;;;;;;5019427;28;20054;-69
2024/01/22 11:37:34;;;;;;;1.60;1.50;;;10.30;99.90;;;;;;5029625;28;20425;-69
2024/01/22 11:40:00;;;;;;;0.10;0.10;;;10.40;99.90;;;;;;5029985;28;20053;-69
2024/01/22 11:42:28;;;;;;;0.52;0.52;;;10.30;99.90;;;;;;5023280;28;20091;-70
2024/01/22 11:44:54;;;;;;;0.45;0.45;;;10.50;99.90;;;;;;5042032;28;20053;-69
2024/01/22 11:47:22;;;;;;;1.45;1.35;;;10.50;99.90;;;;;;5021228;28;20449;-69
2024/01/22 11:49:48;;;;;;;0.10;0.10;;;10.60;99.90;;;;;;5020323;28;20430;-69
2024/01/22 11:52:20;;;;;;;0.10;0.10;;;10.70;99.90;;;;;;5043666;28;20071;-69
2024/01/22 11:54:53;;;;;;;0.75;0.75;;;10.80;99.90;;;;;;5031061;28;21959;-70
2024/01/22 11:57:18;;;;;;;0.10;0.10;;;10.80;99.90;;;;;;5024632;28;20041;-69
2024/01/22 12:00:19;;;;;;;0.10;0.10;;;10.80;99.90;;;;;;5025756;28;20056;-69
2024/01/22 12:02:46;;;;;;;0.82;0.80;;;10.90;99.90;;;;;;5024982;28;20049;-70
2024/01/22 12:05:14;;;;;;;0.20;0.20;;;11.10;99.90;;;;;;5027413;28;20163;-70
2024/01/22 12:07:43;;;;;;;0.35;0.35;;;11.10;99.90;;;;;;5030124;28;20770;-69
2024/01/22 12:10:20;;;;;;;0.85;0.70;;;11.20;99.90;;;;;;5029480;28;20124;-69
2024/01/22 12:12:53;;;;;;;0.10;0.10;;;11.40;99.90;;;;;;5025731;28;20056;-69
2024/01/22 12:15:21;;;;;;;1.10;1.00;;;11.50;99.90;;;;;;5018638;28;20041;-69
2024/01/22 12:17:47;;;;;;;0.00;0.00;;;11.50;99.90;;;;;;5027002;28;23748;-69
2024/01/22 12:20:13;;;;;;;1.33;1.15;;;11.60;99.90;;;;;;5017109;28;20057;-69
2024/01/22 12:22:39;;;;;;;0.30;0.30;;;11.70;99.90;;;;;;5017869;28;20069;-69
2024/01/22 12:25:09;;;;;;;0.15;0.15;;;11.60;99.90;;;;;;5023536;28;20515;-69
2024/01/22 12:27:35;;;;;;;0.38;0.35;;;11.60;99.90;;;;;;5016684;28;20072;-70
2024/01/22 12:30:04;;;;;;;0.17;0.17;;;11.70;99.90;;;;;;5027204;28;20045;-69
2024/01/22 12:32:31;;;;;;;0.25;0.25;;;11.60;99.90;;;;;;5028863;28;20041;-69
2024/01/22 12:35:00;;;;;;;0.10;0.10;;;11.50;99.90;;;;;;5029088;28;20041;-69
2024/01/22 12:37:30;;;;;;;1.83;1.55;;;11.50;99.90;;;;;;5023514;28;20063;-69
2024/01/22 12:40:11;;;;;;;0.80;0.80;;;11.50;99.90;;;;;;5021262;28;20041;-69
2024/01/22 12:42:39;;;;;;;18.45;1.73;;;11.30;99.90;;;;;;5019778;28;20053;-69
2024/01/22 12:45:05;;;;;;;0.77;0.50;;;11.20;99.90;;;;;;5023914;28;20040;-69
2024/01/22 12:47:31;;;;;;;0.10;0.10;;;11.20;99.90;;;;;;5028692;28;20049;-69
2024/01/22 12:49:57;;;;;;;2.17;1.17;;;11.20;99.90;;;;;;5016692;28;20045;-69
2024/01/22 12:52:23;;;;;;;3.65;1.55;;;11.20;99.90;;;;;;5026935;28;20060;-69